sensor_id;sensor_type;location;lat;lon;timestamp;P1;durP1;ratioP1;P2;durP2;ratioP2
55655;SDS011;41530;52.382;5.270;2023-03-11T00:01:13;2.17;;;0.57;;
55655;SDS011;41530;52.382;5.270;2023-03-11T00:03:40;2.10;;;0.40;;
55655;SDS011;41530;52.382;5.270;2023-03-11T00:06:06;2.20;;;0.50;;
55655;SDS011;41530;52.382;5.270;2023-03-11T00:08:33;2.40;;;0.50;;
55655;SDS011;41530;52.382;5.270;2023-03-11T00:11:00;1.80;;;0.50;;
55655;SDS011;41530;52.382;5.270;2023-03-11T00:13:27;1.23;;;0.40;;
55655;SDS011;41530;52.382;5.270;2023-03-11T00:15:55;3.97;;;0.60;;
55655;SDS011;41530;52.382;5.270;2023-03-11T00:18:22;3.70;;;0.40;;
55655;SDS011;41530;52.382;5.270;2023-03-11T00:20:53;1.95;;;0.63;;
55655;SDS011;41530;52.382;5.270;2023-03-11T00:23:21;0.80;;;0.40;;
55655;SDS011;41530;52.382;5.270;2023-03-11T00:25:48;2.40;;;0.32;;
55655;SDS011;41530;52.382;5.270;2023-03-11T00:28:14;1.30;;;0.50;;
55655;SDS011;41530;52.382;5.270;2023-03-11T00:30:42;1.05;;;0.30;;
55655;SDS011;41530;52.382;5.270;2023-03-11T00:33:11;2.03;;;0.50;;
55655;SDS011;41530;52.382;5.270;2023-03-11T00:35:39;1.17;;;0.30;;
55655;SDS011;41530;52.382;5.270;2023-03-11T00:38:07;0.60;;;0.30;;
55655;SDS011;41530;52.382;5.270;2023-03-11T00:40:37;1.55;;;0.38;;
55655;SDS011;41530;52.382;5.270;2023-03-11T00:43:04;2.28;;;0.40;;
55655;SDS011;41530;52.382;5.270;2023-03-11T00:45:31;1.45;;;0.50;;
55655;SDS011;41530;52.382;5.270;2023-03-11T00:47:58;3.13;;;0.65;;
55655;SDS011;41530;52.382;5.270;2023-03-11T00:50:26;1.20;;;0.45;;
55655;SDS011;41530;52.382;5.270;2023-03-11T00:52:57;1.52;;;0.50;;
55655;SDS011;41530;52.382;5.270;2023-03-11T00:55:25;2.35;;;0.70;;
55655;SDS011;41530;52.382;5.270;2023-03-11T00:57:55;1.25;;;0.45;;
55655;SDS011;41530;52.382;5.270;2023-03-11T01:00:23;1.85;;;0.40;;
55655;SDS011;41530;52.382;5.270;2023-03-11T01:02:51;2.38;;;0.40;;
55655;SDS011;41530;52.382;5.270;2023-03-11T01:05:20;0.73;;;0.30;;
55655;SDS011;41530;52.382;5.270;2023-03-11T01:07:49;2.55;;;0.63;;
55655;SDS011;41530;52.382;5.270;2023-03-11T01:10:15;1.08;;;0.47;;
55655;SDS011;41530;52.382;5.270;2023-03-11T01:12:42;0.95;;;0.38;;
55655;SDS011;41530;52.382;5.270;2023-03-11T01:15:14;3.53;;;0.60;;
55655;SDS011;41530;52.382;5.270;2023-03-11T01:17:44;0.85;;;0.38;;
55655;SDS011;41530;52.382;5.270;2023-03-11T01:20:11;1.42;;;0.40;;
55655;SDS011;41530;52.382;5.270;2023-03-11T01:22:38;2.65;;;0.45;;
55655;SDS011;41530;52.382;5.270;2023-03-11T01:25:05;1.13;;;0.40;;
55655;SDS011;41530;52.382;5.270;2023-03-11T01:27:32;1.77;;;0.60;;
55655;SDS011;41530;52.382;5.270;2023-03-11T01:29:59;0.47;;;0.28;;
55655;SDS011;41530;52.382;5.270;2023-03-11T01:32:25;2.00;;;0.32;;
55655;SDS011;41530;52.382;5.270;2023-03-11T01:34:52;0.98;;;0.30;;
55655;SDS011;41530;52.382;5.270;2023-03-11T01:37:18;5.35;;;0.60;;
55655;SDS011;41530;52.382;5.270;2023-03-11T01:39:46;3.58;;;0.60;;
55655;SDS011;41530;52.382;5.270;2023-03-11T01:42:13;1.10;;;0.30;;
55655;SDS011;41530;52.382;5.270;2023-03-11T01:44:39;3.42;;;0.40;;
55655;SDS011;41530;52.382;5.270;2023-03-11T01:49:35;1.30;;;0.43;;
55655;SDS011;41530;52.382;5.270;2023-03-11T01:52:07;1.42;;;0.40;;
55655;SDS011;41530;52.382;5.270;2023-03-11T01:54:36;1.70;;;0.30;;
55655;SDS011;41530;52.382;5.270;2023-03-11T01:57:05;2.40;;;0.50;;
55655;SDS011;41530;52.382;5.270;2023-03-11T01:59:42;1.10;;;0.45;;
55655;SDS011;41530;52.382;5.270;2023-03-11T02:02:16;0.57;;;0.30;;
55655;SDS011;41530;52.382;5.270;2023-03-11T02:04:44;3.60;;;0.60;;
55655;SDS011;41530;52.382;5.270;2023-03-11T02:07:11;0.95;;;0.40;;
55655;SDS011;41530;52.382;5.270;2023-03-11T02:09:40;1.80;;;0.40;;
55655;SDS011;41530;52.382;5.270;2023-03-11T02:12:07;1.80;;;0.43;;
55655;SDS011;41530;52.382;5.270;2023-03-11T02:14:37;1.42;;;0.43;;
55655;SDS011;41530;52.382;5.270;2023-03-11T02:17:08;2.53;;;0.77;;
55655;SDS011;41530;52.382;5.270;2023-03-11T02:19:48;3.60;;;0.43;;
55655;SDS011;41530;52.382;5.270;2023-03-11T02:22:24;1.50;;;0.35;;
55655;SDS011;41530;52.382;5.270;2023-03-11T02:25:02;2.05;;;0.40;;
55655;SDS011;41530;52.382;5.270;2023-03-11T02:27:37;0.70;;;0.40;;
55655;SDS011;41530;52.382;5.270;2023-03-11T02:30:10;1.98;;;0.40;;
55655;SDS011;41530;52.382;5.270;2023-03-11T02:32:38;2.92;;;0.50;;
55655;SDS011;41530;52.382;5.270;2023-03-11T02:35:06;2.22;;;0.57;;
55655;SDS011;41530;52.382;5.270;2023-03-11T02:37:32;2.47;;;0.50;;
55655;SDS011;41530;52.382;5.270;2023-03-11T02:42:52;1.38;;;0.40;;
55655;SDS011;41530;52.382;5.270;2023-03-11T02:45:22;2.13;;;0.40;;
55655;SDS011;41530;52.382;5.270;2023-03-11T02:47:51;1.52;;;0.28;;
55655;SDS011;41530;52.382;5.270;2023-03-11T02:50:19;1.55;;;0.40;;
55655;SDS011;41530;52.382;5.270;2023-03-11T02:52:47;4.43;;;0.55;;
55655;SDS011;41530;52.382;5.270;2023-03-11T02:55:15;3.72;;;0.50;;
55655;SDS011;41530;52.382;5.270;2023-03-11T02:57:43;2.15;;;0.40;;
55655;SDS011;41530;52.382;5.270;2023-03-11T03:00:10;2.70;;;0.50;;
55655;SDS011;41530;52.382;5.270;2023-03-11T03:02:40;0.50;;;0.30;;
55655;SDS011;41530;52.382;5.270;2023-03-11T03:05:09;1.95;;;0.35;;
55655;SDS011;41530;52.382;5.270;2023-03-11T03:07:36;0.85;;;0.35;;
55655;SDS011;41530;52.382;5.270;2023-03-11T03:10:04;1.52;;;0.30;;
55655;SDS011;41530;52.382;5.270;2023-03-11T03:12:32;4.15;;;0.68;;
55655;SDS011;41530;52.382;5.270;2023-03-11T03:14:58;1.30;;;0.35;;
55655;SDS011;41530;52.382;5.270;2023-03-11T03:17:25;1.52;;;0.32;;
55655;SDS011;41530;52.382;5.270;2023-03-11T03:19:52;1.95;;;0.43;;
55655;SDS011;41530;52.382;5.270;2023-03-11T03:22:18;3.35;;;0.43;;
55655;SDS011;41530;52.382;5.270;2023-03-11T03:24:45;2.70;;;0.50;;
55655;SDS011;41530;52.382;5.270;2023-03-11T03:27:11;3.65;;;0.50;;
55655;SDS011;41530;52.382;5.270;2023-03-11T03:29:38;0.80;;;0.20;;
55655;SDS011;41530;52.382;5.270;2023-03-11T03:32:05;5.93;;;0.43;;
55655;SDS011;41530;52.382;5.270;2023-03-11T03:34:32;2.90;;;0.45;;
55655;SDS011;41530;52.382;5.270;2023-03-11T03:36:58;1.08;;;0.30;;
55655;SDS011;41530;52.382;5.270;2023-03-11T03:39:25;2.10;;;0.50;;
55655;SDS011;41530;52.382;5.270;2023-03-11T03:41:55;3.20;;;0.50;;
55655;SDS011;41530;52.382;5.270;2023-03-11T03:44:21;1.95;;;0.30;;
55655;SDS011;41530;52.382;5.270;2023-03-11T03:46:48;3.85;;;0.32;;
55655;SDS011;41530;52.382;5.270;2023-03-11T03:49:14;1.58;;;0.40;;
55655;SDS011;41530;52.382;5.270;2023-03-11T03:51:41;1.27;;;0.28;;
55655;SDS011;41530;52.382;5.270;2023-03-11T03:54:08;0.82;;;0.32;;
55655;SDS011;41530;52.382;5.270;2023-03-11T03:56:34;3.38;;;0.38;;
55655;SDS011;41530;52.382;5.270;2023-03-11T03:59:01;1.60;;;0.30;;
55655;SDS011;41530;52.382;5.270;2023-03-11T04:01:28;0.90;;;0.40;;
55655;SDS011;41530;52.382;5.270;2023-03-11T04:03:54;0.90;;;0.40;;
55655;SDS011;41530;52.382;5.270;2023-03-11T04:06:22;1.38;;;0.40;;
55655;SDS011;41530;52.382;5.270;2023-03-11T04:08:50;2.00;;;0.40;;
55655;SDS011;41530;52.382;5.270;2023-03-11T04:11:18;2.00;;;0.38;;
55655;SDS011;41530;52.382;5.270;2023-03-11T04:13:45;1.38;;;0.38;;
55655;SDS011;41530;52.382;5.270;2023-03-11T04:16:13;0.70;;;0.40;;
55655;SDS011;41530;52.382;5.270;2023-03-11T04:18:42;1.17;;;0.25;;
55655;SDS011;41530;52.382;5.270;2023-03-11T04:21:09;1.08;;;0.35;;
55655;SDS011;41530;52.382;5.270;2023-03-11T04:23:36;0.80;;;0.38;;
55655;SDS011;41530;52.382;5.270;2023-03-11T04:26:03;1.17;;;0.50;;
55655;SDS011;41530;52.382;5.270;2023-03-11T04:28:29;0.63;;;0.35;;
55655;SDS011;41530;52.382;5.270;2023-03-11T04:30:56;1.83;;;0.40;;
55655;SDS011;41530;52.382;5.270;2023-03-11T04:33:23;2.05;;;0.35;;
55655;SDS011;41530;52.382;5.270;2023-03-11T04:35:50;2.28;;;0.30;;
55655;SDS011;41530;52.382;5.270;2023-03-11T04:38:17;0.52;;;0.25;;
55655;SDS011;41530;52.382;5.270;2023-03-11T04:40:43;3.35;;;0.40;;
55655;SDS011;41530;52.382;5.270;2023-03-11T04:43:10;0.60;;;0.32;;
55655;SDS011;41530;52.382;5.270;2023-03-11T04:45:37;3.35;;;0.30;;
55655;SDS011;41530;52.382;5.270;2023-03-11T04:48:04;1.17;;;0.43;;
55655;SDS011;41530;52.382;5.270;2023-03-11T04:50:31;2.13;;;0.40;;
55655;SDS011;41530;52.382;5.270;2023-03-11T04:52:57;1.15;;;0.30;;
55655;SDS011;41530;52.382;5.270;2023-03-11T04:55:24;1.42;;;0.30;;
55655;SDS011;41530;52.382;5.270;2023-03-11T04:57:51;1.45;;;0.30;;
55655;SDS011;41530;52.382;5.270;2023-03-11T05:00:17;1.00;;;0.30;;
55655;SDS011;41530;52.382;5.270;2023-03-11T05:02:49;2.20;;;0.40;;
55655;SDS011;41530;52.382;5.270;2023-03-11T05:05:16;1.05;;;0.30;;
55655;SDS011;41530;52.382;5.270;2023-03-11T05:07:46;1.63;;;0.30;;
55655;SDS011;41530;52.382;5.270;2023-03-11T05:10:14;0.77;;;0.28;;
55655;SDS011;41530;52.382;5.270;2023-03-11T05:12:48;1.33;;;0.32;;
55655;SDS011;41530;52.382;5.270;2023-03-11T05:15:15;0.75;;;0.32;;
55655;SDS011;41530;52.382;5.270;2023-03-11T05:17:42;0.38;;;0.30;;
55655;SDS011;41530;52.382;5.270;2023-03-11T05:20:09;3.22;;;0.32;;
55655;SDS011;41530;52.382;5.270;2023-03-11T05:22:36;0.68;;;0.20;;
55655;SDS011;41530;52.382;5.270;2023-03-11T05:25:03;1.88;;;0.40;;
55655;SDS011;41530;52.382;5.270;2023-03-11T05:27:30;2.42;;;0.40;;
55655;SDS011;41530;52.382;5.270;2023-03-11T05:29:57;0.95;;;0.30;;
55655;SDS011;41530;52.382;5.270;2023-03-11T05:32:24;1.33;;;0.30;;
55655;SDS011;41530;52.382;5.270;2023-03-11T05:34:50;0.47;;;0.20;;
55655;SDS011;41530;52.382;5.270;2023-03-11T05:37:17;2.30;;;0.40;;
55655;SDS011;41530;52.382;5.270;2023-03-11T05:39:44;0.30;;;0.30;;
55655;SDS011;41530;52.382;5.270;2023-03-11T05:42:11;0.82;;;0.40;;
55655;SDS011;41530;52.382;5.270;2023-03-11T05:44:37;1.20;;;0.40;;
55655;SDS011;41530;52.382;5.270;2023-03-11T05:47:04;3.20;;;0.40;;
55655;SDS011;41530;52.382;5.270;2023-03-11T05:49:31;1.08;;;0.30;;
55655;SDS011;41530;52.382;5.270;2023-03-11T05:51:57;1.30;;;0.30;;
55655;SDS011;41530;52.382;5.270;2023-03-11T05:54:24;0.50;;;0.30;;
55655;SDS011;41530;52.382;5.270;2023-03-11T05:56:51;0.55;;;0.20;;
55655;SDS011;41530;52.382;5.270;2023-03-11T05:59:17;0.98;;;0.20;;
55655;SDS011;41530;52.382;5.270;2023-03-11T06:01:44;0.20;;;0.20;;
55655;SDS011;41530;52.382;5.270;2023-03-11T06:04:11;1.58;;;0.30;;
55655;SDS011;41530;52.382;5.270;2023-03-11T06:06:38;1.77;;;0.60;;
55655;SDS011;41530;52.382;5.270;2023-03-11T06:09:09;1.10;;;0.40;;
55655;SDS011;41530;52.382;5.270;2023-03-11T06:11:37;1.23;;;0.30;;
55655;SDS011;41530;52.382;5.270;2023-03-11T06:14:04;0.77;;;0.47;;
55655;SDS011;41530;52.382;5.270;2023-03-11T06:16:31;1.02;;;0.20;;
55655;SDS011;41530;52.382;5.270;2023-03-11T06:18:58;1.23;;;0.30;;
55655;SDS011;41530;52.382;5.270;2023-03-11T06:21:27;0.22;;;0.20;;
55655;SDS011;41530;52.382;5.270;2023-03-11T06:23:54;0.35;;;0.25;;
55655;SDS011;41530;52.382;5.270;2023-03-11T06:26:21;2.50;;;0.43;;
55655;SDS011;41530;52.382;5.270;2023-03-11T06:28:49;0.30;;;0.30;;
55655;SDS011;41530;52.382;5.270;2023-03-11T06:31:26;0.82;;;0.30;;
55655;SDS011;41530;52.382;5.270;2023-03-11T06:33:54;1.30;;;0.40;;
55655;SDS011;41530;52.382;5.270;2023-03-11T06:36:24;1.02;;;0.30;;
55655;SDS011;41530;52.382;5.270;2023-03-11T06:38:51;1.17;;;0.30;;
55655;SDS011;41530;52.382;5.270;2023-03-11T06:41:19;1.33;;;0.25;;
55655;SDS011;41530;52.382;5.270;2023-03-11T06:43:46;0.57;;;0.30;;
55655;SDS011;41530;52.382;5.270;2023-03-11T06:46:17;1.05;;;0.40;;
55655;SDS011;41530;52.382;5.270;2023-03-11T06:48:45;2.17;;;0.30;;
55655;SDS011;41530;52.382;5.270;2023-03-11T06:51:12;1.02;;;0.22;;
55655;SDS011;41530;52.382;5.270;2023-03-11T06:53:39;1.13;;;0.30;;
55655;SDS011;41530;52.382;5.270;2023-03-11T06:56:07;1.17;;;0.30;;
55655;SDS011;41530;52.382;5.270;2023-03-11T06:58:35;2.22;;;0.35;;
55655;SDS011;41530;52.382;5.270;2023-03-11T07:01:05;1.67;;;0.30;;
55655;SDS011;41530;52.382;5.270;2023-03-11T07:03:33;1.02;;;0.50;;
55655;SDS011;41530;52.382;5.270;2023-03-11T07:06:00;1.27;;;0.50;;
55655;SDS011;41530;52.382;5.270;2023-03-11T07:08:27;1.42;;;0.65;;
55655;SDS011;41530;52.382;5.270;2023-03-11T07:11:04;0.32;;;0.30;;
55655;SDS011;41530;52.382;5.270;2023-03-11T07:13:32;0.95;;;0.40;;
55655;SDS011;41530;52.382;5.270;2023-03-11T07:16:03;1.23;;;0.30;;
55655;SDS011;41530;52.382;5.270;2023-03-11T07:18:30;0.35;;;0.30;;
55655;SDS011;41530;52.382;5.270;2023-03-11T07:20:57;1.50;;;0.32;;
55655;SDS011;41530;52.382;5.270;2023-03-11T07:23:24;0.70;;;0.40;;
55655;SDS011;41530;52.382;5.270;2023-03-11T07:25:51;0.40;;;0.30;;
55655;SDS011;41530;52.382;5.270;2023-03-11T07:28:18;0.60;;;0.30;;
55655;SDS011;41530;52.382;5.270;2023-03-11T07:30:46;0.77;;;0.45;;
55655;SDS011;41530;52.382;5.270;2023-03-11T07:33:13;0.75;;;0.20;;
55655;SDS011;41530;52.382;5.270;2023-03-11T07:35:41;0.63;;;0.40;;
55655;SDS011;41530;52.382;5.270;2023-03-11T07:38:08;1.08;;;0.30;;
55655;SDS011;41530;52.382;5.270;2023-03-11T07:40:34;1.83;;;0.38;;
55655;SDS011;41530;52.382;5.270;2023-03-11T07:43:01;1.55;;;0.50;;
55655;SDS011;41530;52.382;5.270;2023-03-11T07:45:28;1.58;;;0.55;;
55655;SDS011;41530;52.382;5.270;2023-03-11T07:47:55;0.98;;;0.35;;
55655;SDS011;41530;52.382;5.270;2023-03-11T07:50:21;1.35;;;0.50;;
55655;SDS011;41530;52.382;5.270;2023-03-11T07:52:48;1.67;;;0.60;;
55655;SDS011;41530;52.382;5.270;2023-03-11T07:55:15;1.98;;;0.60;;
55655;SDS011;41530;52.382;5.270;2023-03-11T07:57:41;2.30;;;1.00;;
55655;SDS011;41530;52.382;5.270;2023-03-11T08:00:08;2.17;;;0.75;;
55655;SDS011;41530;52.382;5.270;2023-03-11T08:02:36;1.35;;;0.50;;
55655;SDS011;41530;52.382;5.270;2023-03-11T08:05:02;1.48;;;0.70;;
55655;SDS011;41530;52.382;5.270;2023-03-11T08:07:30;0.93;;;0.57;;
55655;SDS011;41530;52.382;5.270;2023-03-11T08:09:57;1.15;;;0.50;;
55655;SDS011;41530;52.382;5.270;2023-03-11T08:12:24;4.22;;;0.70;;
55655;SDS011;41530;52.382;5.270;2023-03-11T08:14:51;1.77;;;0.57;;
55655;SDS011;41530;52.382;5.270;2023-03-11T08:17:17;0.95;;;0.50;;
55655;SDS011;41530;52.382;5.270;2023-03-11T08:19:44;3.10;;;0.60;;
55655;SDS011;41530;52.382;5.270;2023-03-11T08:22:10;2.20;;;0.50;;
55655;SDS011;41530;52.382;5.270;2023-03-11T08:24:37;2.88;;;0.60;;
55655;SDS011;41530;52.382;5.270;2023-03-11T08:27:04;0.95;;;0.50;;
55655;SDS011;41530;52.382;5.270;2023-03-11T08:29:30;1.38;;;0.40;;
55655;SDS011;41530;52.382;5.270;2023-03-11T08:31:57;0.73;;;0.32;;
55655;SDS011;41530;52.382;5.270;2023-03-11T08:34:24;1.27;;;0.52;;
55655;SDS011;41530;52.382;5.270;2023-03-11T08:36:52;4.30;;;0.50;;
55655;SDS011;41530;52.382;5.270;2023-03-11T08:39:19;2.28;;;0.50;;
55655;SDS011;41530;52.382;5.270;2023-03-11T08:41:46;1.33;;;0.32;;
55655;SDS011;41530;52.382;5.270;2023-03-11T08:44:12;2.42;;;0.70;;
55655;SDS011;41530;52.382;5.270;2023-03-11T08:46:39;4.78;;;0.63;;
55655;SDS011;41530;52.382;5.270;2023-03-11T08:49:06;1.85;;;0.50;;
55655;SDS011;41530;52.382;5.270;2023-03-11T08:51:32;2.38;;;0.50;;
55655;SDS011;41530;52.382;5.270;2023-03-11T08:54:00;2.10;;;0.70;;
55655;SDS011;41530;52.382;5.270;2023-03-11T08:56:28;1.20;;;0.45;;
55655;SDS011;41530;52.382;5.270;2023-03-11T08:58:55;1.48;;;0.40;;
55655;SDS011;41530;52.382;5.270;2023-03-11T09:01:21;0.65;;;0.40;;
55655;SDS011;41530;52.382;5.270;2023-03-11T09:03:49;4.25;;;0.60;;
55655;SDS011;41530;52.382;5.270;2023-03-11T09:06:15;1.00;;;0.50;;
55655;SDS011;41530;52.382;5.270;2023-03-11T09:08:43;3.63;;;0.50;;
55655;SDS011;41530;52.382;5.270;2023-03-11T09:11:10;1.48;;;0.40;;
55655;SDS011;41530;52.382;5.270;2023-03-11T09:13:39;2.28;;;0.38;;
55655;SDS011;41530;52.382;5.270;2023-03-11T09:16:07;4.43;;;0.47;;
55655;SDS011;41530;52.382;5.270;2023-03-11T09:18:37;0.80;;;0.50;;
55655;SDS011;41530;52.382;5.270;2023-03-11T09:21:04;0.88;;;0.38;;
55655;SDS011;41530;52.382;5.270;2023-03-11T09:23:31;0.57;;;0.32;;
55655;SDS011;41530;52.382;5.270;2023-03-11T09:25:57;0.47;;;0.35;;
55655;SDS011;41530;52.382;5.270;2023-03-11T09:28:24;2.05;;;0.40;;
55655;SDS011;41530;52.382;5.270;2023-03-11T09:30:51;1.08;;;0.45;;
55655;SDS011;41530;52.382;5.270;2023-03-11T09:33:17;0.30;;;0.28;;
55655;SDS011;41530;52.382;5.270;2023-03-11T09:35:44;0.90;;;0.40;;
55655;SDS011;41530;52.382;5.270;2023-03-11T09:38:11;0.65;;;0.30;;
55655;SDS011;41530;52.382;5.270;2023-03-11T09:40:47;0.57;;;0.25;;
55655;SDS011;41530;52.382;5.270;2023-03-11T09:43:24;1.13;;;0.40;;
55655;SDS011;41530;52.382;5.270;2023-03-11T09:46:00;1.63;;;0.50;;
55655;SDS011;41530;52.382;5.270;2023-03-11T09:48:48;0.65;;;0.30;;
55655;SDS011;41530;52.382;5.270;2023-03-11T09:51:38;0.88;;;0.40;;
55655;SDS011;41530;52.382;5.270;2023-03-11T09:54:16;0.40;;;0.30;;
55655;SDS011;41530;52.382;5.270;2023-03-11T09:56:43;2.75;;;0.40;;
55655;SDS011;41530;52.382;5.270;2023-03-11T10:01:43;0.65;;;0.35;;
55655;SDS011;41530;52.382;5.270;2023-03-11T10:04:13;2.55;;;0.40;;
55655;SDS011;41530;52.382;5.270;2023-03-11T10:06:46;0.85;;;0.30;;
55655;SDS011;41530;52.382;5.270;2023-03-11T10:09:27;1.45;;;0.57;;
55655;SDS011;41530;52.382;5.270;2023-03-11T10:12:01;1.38;;;0.30;;
55655;SDS011;41530;52.382;5.270;2023-03-11T10:14:39;1.25;;;0.22;;
55655;SDS011;41530;52.382;5.270;2023-03-11T10:23:31;1.08;;;0.30;;
55655;SDS011;41530;52.382;5.270;2023-03-11T10:29:13;1.52;;;0.47;;
55655;SDS011;41530;52.382;5.270;2023-03-11T10:33:46;0.75;;;0.35;;
55655;SDS011;41530;52.382;5.270;2023-03-11T10:36:16;0.45;;;0.30;;
55655;SDS011;41530;52.382;5.270;2023-03-11T10:38:50;1.10;;;0.40;;
55655;SDS011;41530;52.382;5.270;2023-03-11T10:41:22;0.93;;;0.32;;
55655;SDS011;41530;52.382;5.270;2023-03-11T10:44:18;0.30;;;0.30;;
55655;SDS011;41530;52.382;5.270;2023-03-11T10:46:49;0.40;;;0.30;;
55655;SDS011;41530;52.382;5.270;2023-03-11T10:49:16;0.25;;;0.22;;
55655;SDS011;41530;52.382;5.270;2023-03-11T10:51:44;0.85;;;0.22;;
55655;SDS011;41530;52.382;5.270;2023-03-11T10:54:24;1.40;;;0.40;;
55655;SDS011;41530;52.382;5.270;2023-03-11T10:56:57;0.98;;;0.40;;
55655;SDS011;41530;52.382;5.270;2023-03-11T10:59:32;0.57;;;0.20;;
55655;SDS011;41530;52.382;5.270;2023-03-11T11:02:26;0.38;;;0.30;;
55655;SDS011;41530;52.382;5.270;2023-03-11T11:08:01;0.80;;;0.20;;
55655;SDS011;41530;52.382;5.270;2023-03-11T11:10:49;0.55;;;0.40;;
55655;SDS011;41530;52.382;5.270;2023-03-11T11:13:18;0.60;;;0.30;;
55655;SDS011;41530;52.382;5.270;2023-03-11T11:15:51;1.27;;;0.30;;
55655;SDS011;41530;52.382;5.270;2023-03-11T11:18:56;0.63;;;0.20;;
55655;SDS011;41530;52.382;5.270;2023-03-11T11:21:40;0.73;;;0.30;;
55655;SDS011;41530;52.382;5.270;2023-03-11T11:27:06;0.75;;;0.40;;
55655;SDS011;41530;52.382;5.270;2023-03-11T11:29:44;0.73;;;0.30;;
55655;SDS011;41530;52.382;5.270;2023-03-11T11:37:24;1.38;;;0.35;;
55655;SDS011;41530;52.382;5.270;2023-03-11T11:40:03;1.75;;;0.30;;
55655;SDS011;41530;52.382;5.270;2023-03-11T11:42:46;0.90;;;0.30;;
55655;SDS011;41530;52.382;5.270;2023-03-11T11:45:56;0.30;;;0.23;;
55655;SDS011;41530;52.382;5.270;2023-03-11T11:51:27;0.90;;;0.30;;
55655;SDS011;41530;52.382;5.270;2023-03-11T11:54:00;0.60;;;0.30;;
55655;SDS011;41530;52.382;5.270;2023-03-11T12:06:46;1.05;;;0.30;;
55655;SDS011;41530;52.382;5.270;2023-03-11T12:09:22;3.97;;;0.35;;
55655;SDS011;41530;52.382;5.270;2023-03-11T12:14:35;0.35;;;0.30;;
55655;SDS011;41530;52.382;5.270;2023-03-11T12:17:03;0.75;;;0.20;;
55655;SDS011;41530;52.382;5.270;2023-03-11T12:27:50;1.60;;;0.43;;
55655;SDS011;41530;52.382;5.270;2023-03-11T12:30:24;0.85;;;0.30;;
55655;SDS011;41530;52.382;5.270;2023-03-11T12:35:27;1.02;;;0.40;;
55655;SDS011;41530;52.382;5.270;2023-03-11T12:43:23;0.93;;;0.30;;
55655;SDS011;41530;52.382;5.270;2023-03-11T12:45:59;0.55;;;0.20;;
55655;SDS011;41530;52.382;5.270;2023-03-11T12:53:52;0.38;;;0.25;;
55655;SDS011;41530;52.382;5.270;2023-03-11T13:02:15;0.60;;;0.38;;
55655;SDS011;41530;52.382;5.270;2023-03-11T13:04:43;0.95;;;0.40;;
55655;SDS011;41530;52.382;5.270;2023-03-11T13:31:13;7.55;;;1.27;;
55655;SDS011;41530;52.382;5.270;2023-03-11T13:39:30;8.15;;;1.30;;
55655;SDS011;41530;52.382;5.270;2023-03-11T13:41:57;7.03;;;1.35;;
55655;SDS011;41530;52.382;5.270;2023-03-11T13:44:36;5.05;;;1.20;;
55655;SDS011;41530;52.382;5.270;2023-03-11T13:47:07;10.05;;;1.30;;
55655;SDS011;41530;52.382;5.270;2023-03-11T13:49:41;8.63;;;1.35;;
55655;SDS011;41530;52.382;5.270;2023-03-11T13:52:11;8.30;;;1.42;;
55655;SDS011;41530;52.382;5.270;2023-03-11T13:54:48;3.95;;;1.15;;
55655;SDS011;41530;52.382;5.270;2023-03-11T13:57:28;6.22;;;1.30;;
55655;SDS011;41530;52.382;5.270;2023-03-11T14:00:02;8.15;;;1.10;;
55655;SDS011;41530;52.382;5.270;2023-03-11T14:02:46;6.03;;;1.10;;
55655;SDS011;41530;52.382;5.270;2023-03-11T14:05:35;8.52;;;1.17;;
55655;SDS011;41530;52.382;5.270;2023-03-11T14:08:22;3.58;;;0.80;;
55655;SDS011;41530;52.382;5.270;2023-03-11T14:13:43;10.00;;;1.42;;
55655;SDS011;41530;52.382;5.270;2023-03-11T14:19:13;4.70;;;1.02;;
55655;SDS011;41530;52.382;5.270;2023-03-11T14:21:41;5.05;;;0.82;;
55655;SDS011;41530;52.382;5.270;2023-03-11T14:24:19;5.35;;;1.02;;
55655;SDS011;41530;52.382;5.270;2023-03-11T14:26:49;5.78;;;1.05;;
55655;SDS011;41530;52.382;5.270;2023-03-11T14:34:59;7.90;;;0.95;;
55655;SDS011;41530;52.382;5.270;2023-03-11T14:39:57;5.55;;;1.35;;
55655;SDS011;41530;52.382;5.270;2023-03-11T14:42:25;5.90;;;0.77;;
55655;SDS011;41530;52.382;5.270;2023-03-11T14:45:00;3.20;;;0.68;;
55655;SDS011;41530;52.382;5.270;2023-03-11T14:47:42;5.28;;;0.90;;
55655;SDS011;41530;52.382;5.270;2023-03-11T14:50:15;2.58;;;0.60;;
55655;SDS011;41530;52.382;5.270;2023-03-11T14:53:22;7.93;;;0.85;;
55655;SDS011;41530;52.382;5.270;2023-03-11T14:55:44;1.23;;;0.50;;
55655;SDS011;41530;52.382;5.270;2023-03-11T15:04:11;3.55;;;0.50;;
55655;SDS011;41530;52.382;5.270;2023-03-11T15:06:39;2.25;;;0.50;;
55655;SDS011;41530;52.382;5.270;2023-03-11T15:11:49;1.73;;;0.40;;
55655;SDS011;41530;52.382;5.270;2023-03-11T15:20:28;3.42;;;0.70;;
55655;SDS011;41530;52.382;5.270;2023-03-11T15:23:03;3.22;;;0.60;;
55655;SDS011;41530;52.382;5.270;2023-03-11T15:25:32;5.53;;;1.25;;
55655;SDS011;41530;52.382;5.270;2023-03-11T15:28:17;3.25;;;0.40;;
55655;SDS011;41530;52.382;5.270;2023-03-11T15:33:42;2.47;;;0.35;;
55655;SDS011;41530;52.382;5.270;2023-03-11T15:39:09;1.05;;;0.43;;
55655;SDS011;41530;52.382;5.270;2023-03-11T15:42:00;1.70;;;0.50;;
55655;SDS011;41530;52.382;5.270;2023-03-11T15:47:20;3.65;;;0.50;;
55655;SDS011;41530;52.382;5.270;2023-03-11T15:49:48;0.93;;;0.50;;
55655;SDS011;41530;52.382;5.270;2023-03-11T15:52:15;2.17;;;0.47;;
55655;SDS011;41530;52.382;5.270;2023-03-11T15:54:44;1.02;;;0.43;;
55655;SDS011;41530;52.382;5.270;2023-03-11T15:57:25;1.63;;;0.40;;
55655;SDS011;41530;52.382;5.270;2023-03-11T15:59:54;2.67;;;0.65;;
55655;SDS011;41530;52.382;5.270;2023-03-11T16:02:23;2.70;;;0.47;;
55655;SDS011;41530;52.382;5.270;2023-03-11T16:04:55;1.50;;;0.43;;
55655;SDS011;41530;52.382;5.270;2023-03-11T16:07:23;1.05;;;0.50;;
55655;SDS011;41530;52.382;5.270;2023-03-11T16:10:05;3.90;;;0.30;;
55655;SDS011;41530;52.382;5.270;2023-03-11T16:12:33;2.10;;;0.50;;
55655;SDS011;41530;52.382;5.270;2023-03-11T16:14:59;0.88;;;0.40;;
55655;SDS011;41530;52.382;5.270;2023-03-11T16:17:26;1.80;;;0.40;;
55655;SDS011;41530;52.382;5.270;2023-03-11T16:20:12;3.23;;;0.40;;
55655;SDS011;41530;52.382;5.270;2023-03-11T16:22:38;2.17;;;0.40;;
55655;SDS011;41530;52.382;5.270;2023-03-11T16:25:05;2.38;;;0.50;;
55655;SDS011;41530;52.382;5.270;2023-03-11T16:27:35;2.83;;;0.40;;
55655;SDS011;41530;52.382;5.270;2023-03-11T16:30:01;2.58;;;0.50;;
55655;SDS011;41530;52.382;5.270;2023-03-11T16:32:28;2.10;;;0.50;;
55655;SDS011;41530;52.382;5.270;2023-03-11T16:34:55;2.15;;;0.35;;
55655;SDS011;41530;52.382;5.270;2023-03-11T16:37:22;2.30;;;0.45;;
55655;SDS011;41530;52.382;5.270;2023-03-11T16:39:48;4.15;;;0.50;;
55655;SDS011;41530;52.382;5.270;2023-03-11T16:42:20;3.50;;;0.35;;
55655;SDS011;41530;52.382;5.270;2023-03-11T16:44:48;1.80;;;0.50;;
55655;SDS011;41530;52.382;5.270;2023-03-11T16:47:15;2.00;;;0.52;;
55655;SDS011;41530;52.382;5.270;2023-03-11T16:49:42;2.67;;;0.40;;
55655;SDS011;41530;52.382;5.270;2023-03-11T16:52:08;1.25;;;0.55;;
55655;SDS011;41530;52.382;5.270;2023-03-11T16:54:35;0.40;;;0.30;;
55655;SDS011;41530;52.382;5.270;2023-03-11T16:57:02;5.05;;;0.50;;
55655;SDS011;41530;52.382;5.270;2023-03-11T16:59:28;3.17;;;0.40;;
55655;SDS011;41530;52.382;5.270;2023-03-11T17:01:55;1.08;;;0.40;;
55655;SDS011;41530;52.382;5.270;2023-03-11T17:04:22;2.47;;;0.47;;
55655;SDS011;41530;52.382;5.270;2023-03-11T17:06:48;1.73;;;0.50;;
55655;SDS011;41530;52.382;5.270;2023-03-11T17:09:15;0.57;;;0.35;;
55655;SDS011;41530;52.382;5.270;2023-03-11T17:11:41;1.25;;;0.35;;
55655;SDS011;41530;52.382;5.270;2023-03-11T17:14:08;0.90;;;0.32;;
55655;SDS011;41530;52.382;5.270;2023-03-11T17:16:42;1.13;;;0.40;;
55655;SDS011;41530;52.382;5.270;2023-03-11T17:19:10;1.85;;;0.38;;
55655;SDS011;41530;52.382;5.270;2023-03-11T17:21:37;1.55;;;0.52;;
55655;SDS011;41530;52.382;5.270;2023-03-11T17:24:03;0.52;;;0.40;;